New Trenton, IN (47035)

11:24 AM EDT on October 22, 2014 (GMT -0400)
MM Hill | Change Station
CLOSE
Current Station
Personal Weather Station
Location: West Harrison, IN
Elevation: 780 ft
Nearby Weather Stations

Elev 780 ft 39.29 °N, 84.83 °W | Updated 55 seconds ago

Mostly Cloudy
Mostly Cloudy
48.9 °F
Feels Like 49 °F
N
0.0
Wind Variable Wind from ENE
Gusts 6.3 mph

Today
High -- | Low -- °F
--% Chance of Precip.
Yesterday
High -- | Low -- °F
Precip. -- in
7:56 AM 6:50 PM
Waning Crescent, 2% visible
Pressure 30.33 in
Visibility 10.0 miles
Clouds Overcast 2900 ft
Windchill 49 °F
Dew Point 32 °F
Humidity 53%
Rainfall 0.00 in
Snow Depth Not available.
UV 1 out of 12
Pollen 1.40 out of 12
Air Quality Not available.
Flu Activity Sporadic
METAR KHAO 221453Z AUTO 36005KT 10SM OVC029 09/05 A3032 RMK AO2 SLP269 T00890050 51014

More Conditions Fewer Conditions

Pressure 30.33 in
Visibility 10.0 miles
Clouds Overcast 2900 ft
Windchill 49 °F
Dew Point 32 °F
Humidity 53%
Rainfall 0.00 in
Snow Depth Not available.
UV 1 out of 12
Pollen 1.40 out of 12
Air Quality Not available.
Flu Activity Sporadic
METAR KHAO 221453Z AUTO 36005KT 10SM OVC029 09/05 A3032 RMK AO2 SLP269 T00890050 51014

More Conditions Fewer Conditions

10-Day Weather Forecast

Almanac

Astronomy

Oct. 22, 2014 Rise Set
Actual Time 7:56 AM EDT 6:50 PM EDT
Civil Twilight 7:29 AM EDT 7:18 PM EDT
Nautical Twilight 6:58 AM EDT 7:49 PM EDT
Astronomical Twilight 6:27 AM EDT 8:20 PM EDT
Moon 6:37 AM EDT 6:16 PM EDT
Length of Visible Light 11h 48m
Length of Day
10h 54m
Tomorrow will be 2m 23s shorter.
Waning Crescent, 2% of the Moon is Illuminated
Today
Waning Crescent
Oct 23
New
Oct 30
First Quarter
Nov 6
Full
Nov 14
Last Quarter

Today's Extremes

State Highs State Lows

Community

WunderPhotos

Upload Photos

1,763,949 photos uploaded!

Nearby

Snow Depth

Station Depth Elevation
No new snow has been reported.

Earthquake Activity

City Distance Mag. Time & Date
No recent earthquake activity has been reported nearby.
Minimum magnitude displayed is 2.5.

Coastal Water Temperatures

Place Temperature
No Stations Reporting

Nearby Weather Stations